CZA weather

Chichen Itza International Airport
Chichen Itza, Yucatan, Mexico

Public forecast

Using degrees Celsius for public forecast. Weather courtesy of forecast.io.

METAR (pilot weather report)

Retrieved 2018/07/15 20:42 UTC (2 hours ago):

MMCT 152042Z 18008KT 6SM BKN030TCU 34/25 A2997 RMK 8/200 MSGTX MMMD

TAF (pilot weather forecast)

Closest forecast is Licenciado Manuel Crescencio Rejon Int Airport, 70.3 nm (130.2 km) WNW. Retrieved 2018/07/15 18:22 UTC (4 hours ago):

TAF MMMD 151715Z 1518/1624 08010KT P6SM BKN015 TX33/1518Z TN24/1610Z FM160000 10005KT P6SM SCT020 TEMPO 1610/1614 2SM BR OVC005 FM161600 12006KT P6SM SCT020 SCT300 BECMG 1619/1620 BKN020 BKN200 PROB40 1621/1701 5SM TSRA BKN020CB BKN080 OVC200